createdAt,value
2022-10-22T00:00:30.893Z,13.70
2022-10-22T00:01:30.862Z,13.73
2022-10-22T00:02:30.883Z,13.75
2022-10-22T00:03:30.832Z,13.75
2022-10-22T00:04:34.488Z,13.77
2022-10-22T00:05:30.822Z,13.77
2022-10-22T00:06:30.791Z,13.77
2022-10-22T00:07:30.820Z,13.78
2022-10-22T00:08:30.841Z,13.78
2022-10-22T00:09:30.773Z,13.79
2022-10-22T00:10:30.750Z,13.78
2022-10-22T00:11:30.762Z,13.78
2022-10-22T00:12:30.730Z,13.81
2022-10-22T00:13:30.721Z,13.82
2022-10-22T00:14:30.700Z,13.84
2022-10-22T00:15:30.679Z,13.85
2022-10-22T00:16:30.670Z,13.88
2022-10-22T00:17:30.675Z,13.88
2022-10-22T00:18:30.652Z,13.89
2022-10-22T00:19:30.629Z,13.91
2022-10-22T00:20:30.622Z,13.91
2022-10-22T00:21:30.599Z,13.91
2022-10-22T00:22:30.615Z,13.89
2022-10-22T00:23:30.578Z,13.89
2022-10-22T00:24:30.569Z,13.89
2022-10-22T00:25:30.549Z,13.88
2022-10-22T00:26:30.548Z,13.89
2022-10-22T00:27:30.531Z,13.91
2022-10-22T00:28:30.519Z,13.91
2022-10-22T00:29:30.500Z,13.91
2022-10-22T00:30:30.490Z,13.92
2022-10-22T00:31:30.478Z,13.95
2022-10-22T00:32:30.480Z,13.92
2022-10-22T00:33:30.451Z,13.92
2022-10-22T00:34:30.437Z,13.92
2022-10-22T00:35:30.426Z,13.96
2022-10-22T00:36:30.421Z,13.97
2022-10-22T00:37:30.419Z,13.96
2022-10-22T00:38:30.395Z,13.95
2022-10-22T00:39:30.366Z,13.95
2022-10-22T00:40:30.377Z,13.91
2022-10-22T00:41:30.351Z,13.91
2022-10-22T00:42:30.357Z,13.91
2022-10-22T00:43:30.318Z,13.89
2022-10-22T00:44:30.307Z,13.89
2022-10-22T00:45:30.297Z,13.88
2022-10-22T00:46:30.285Z,13.91
2022-10-22T00:47:30.286Z,13.91
2022-10-22T00:48:30.271Z,13.91
2022-10-22T00:49:30.248Z,13.92
2022-10-22T00:50:30.245Z,13.95
2022-10-22T00:51:30.220Z,13.92
2022-10-22T00:52:30.232Z,13.92
2022-10-22T00:53:30.195Z,13.92
2022-10-22T00:54:30.185Z,13.91
2022-10-22T00:55:30.164Z,13.92
2022-10-22T00:56:30.165Z,13.92
2022-10-22T00:57:30.155Z,13.91
2022-10-22T00:58:30.133Z,13.89
2022-10-22T00:59:30.116Z,13.89
2022-10-22T01:00:30.156Z,13.88
2022-10-22T01:01:30.092Z,13.88
2022-10-22T01:02:30.093Z,13.88
2022-10-22T01:03:30.076Z,13.87
2022-10-22T01:04:30.063Z,13.87
2022-10-22T01:05:30.065Z,13.87
2022-10-22T01:06:30.035Z,13.85
2022-10-22T01:07:30.058Z,13.84
2022-10-22T01:08:30.070Z,13.87
2022-10-22T01:09:29.992Z,13.87
2022-10-22T01:10:29.993Z,13.88
2022-10-22T01:11:29.982Z,13.88
2022-10-22T01:12:29.963Z,13.91
2022-10-22T01:13:29.935Z,13.88
2022-10-22T01:14:29.923Z,13.87
2022-10-22T01:15:29.934Z,13.88
2022-10-22T01:16:29.914Z,13.87
2022-10-22T01:17:29.902Z,13.87
2022-10-22T01:18:29.875Z,13.88
2022-10-22T01:19:29.862Z,13.89
2022-10-22T01:20:29.853Z,13.88
2022-10-22T01:21:29.832Z,13.88
2022-10-22T01:22:29.841Z,13.88
2022-10-22T01:23:29.806Z,13.89
2022-10-22T01:24:29.810Z,13.89
2022-10-22T01:25:29.781Z,13.88
2022-10-22T01:26:29.771Z,13.87
2022-10-22T01:27:29.807Z,13.85
2022-10-22T01:28:29.751Z,13.87
2022-10-22T01:29:29.740Z,13.87
2022-10-22T01:30:29.720Z,13.88
2022-10-22T01:31:29.711Z,13.89
2022-10-22T01:32:29.700Z,13.92
2022-10-22T01:33:29.671Z,13.91
2022-10-22T01:34:29.698Z,13.91
2022-10-22T01:35:29.695Z,13.91
2022-10-22T01:36:29.648Z,13.95
2022-10-22T01:37:29.639Z,13.95
2022-10-22T01:38:29.619Z,13.95
2022-10-22T01:39:29.613Z,13.95
2022-10-22T01:40:29.601Z,13.96
2022-10-22T01:41:29.578Z,13.95
2022-10-22T01:42:29.589Z,13.95
2022-10-22T01:43:29.548Z,13.95
2022-10-22T01:44:29.598Z,13.95
2022-10-22T01:45:29.527Z,13.97
2022-10-22T01:46:29.523Z,13.97
2022-10-22T01:47:29.508Z,13.97
2022-10-22T01:48:29.499Z,13.96
2022-10-22T01:49:29.478Z,13.95
2022-10-22T01:50:29.466Z,13.96
2022-10-22T01:51:29.448Z,13.95
2022-10-22T01:52:29.449Z,13.96
2022-10-22T01:53:29.427Z,13.96
2022-10-22T01:54:29.417Z,13.96
2022-10-22T01:55:29.399Z,13.96
2022-10-22T01:56:29.392Z,13.97
2022-10-22T01:57:29.406Z,13.99
2022-10-22T01:58:29.367Z,13.97
2022-10-22T01:59:29.347Z,13.97
2022-10-22T02:00:29.412Z,14.02
2022-10-22T02:01:29.318Z,14.02
2022-10-22T02:02:29.347Z,14.02
2022-10-22T02:03:29.296Z,14.02
2022-10-22T02:04:29.294Z,14.00
2022-10-22T02:05:29.276Z,13.99
2022-10-22T02:06:29.269Z,13.99
2022-10-22T02:07:29.276Z,13.97
2022-10-22T02:08:29.245Z,13.95
2022-10-22T02:09:29.227Z,13.95
2022-10-22T02:10:29.208Z,13.91
2022-10-22T02:11:29.195Z,13.89
2022-10-22T02:12:29.205Z,13.89
2022-10-22T02:13:29.166Z,13.89
2022-10-22T02:14:29.155Z,13.88
2022-10-22T02:15:29.153Z,13.88
2022-10-22T02:16:29.134Z,13.85
2022-10-22T02:17:29.133Z,13.85
2022-10-22T02:18:29.104Z,13.85
2022-10-22T02:19:29.124Z,13.84
2022-10-22T02:20:29.094Z,13.84
2022-10-22T02:21:29.073Z,13.84
2022-10-22T02:22:29.074Z,13.82
2022-10-22T02:23:29.054Z,13.84
2022-10-22T02:24:29.044Z,13.82
2022-10-22T02:25:29.013Z,13.81
2022-10-22T02:26:29.003Z,13.81
2022-10-22T02:27:29.004Z,13.85
2022-10-22T02:28:28.983Z,13.85
2022-10-22T02:29:28.973Z,13.84
2022-10-22T02:30:28.966Z,13.85
2022-10-22T02:31:28.943Z,13.84
2022-10-22T02:32:28.943Z,13.82
2022-10-22T02:33:28.922Z,13.81
2022-10-22T02:34:28.912Z,13.81
2022-10-22T02:35:28.883Z,13.79
2022-10-22T02:36:28.882Z,13.78
2022-10-22T02:37:28.882Z,13.79
2022-10-22T02:38:28.841Z,13.79
2022-10-22T02:39:28.843Z,13.79
2022-10-22T02:40:28.823Z,13.78
2022-10-22T02:41:28.812Z,13.79
2022-10-22T02:42:28.805Z,13.78
2022-10-22T02:43:28.791Z,13.79
2022-10-22T02:44:28.771Z,13.79
2022-10-22T02:45:28.763Z,13.79
2022-10-22T02:46:28.752Z,13.79
2022-10-22T02:47:28.739Z,13.81
2022-10-22T02:48:28.730Z,13.81
2022-10-22T02:49:28.722Z,13.81
2022-10-22T02:50:28.689Z,13.82
2022-10-22T02:51:28.690Z,13.81
2022-10-22T02:52:28.669Z,13.81
2022-10-22T02:53:28.673Z,13.79
2022-10-22T02:54:28.639Z,13.78
2022-10-22T02:55:28.632Z,13.77
2022-10-22T02:56:28.620Z,13.78
2022-10-22T02:57:28.599Z,13.78
2022-10-22T02:58:28.589Z,13.78
2022-10-22T02:59:28.580Z,13.78
2022-10-22T03:00:28.614Z,13.78
2022-10-22T03:01:28.579Z,13.78
2022-10-22T03:02:28.549Z,13.78
2022-10-22T03:03:28.529Z,13.78
2022-10-22T03:04:28.518Z,13.77
2022-10-22T03:05:28.511Z,13.78
2022-10-22T03:06:28.510Z,13.78
2022-10-22T03:07:28.477Z,13.81
2022-10-22T03:08:28.468Z,13.84
2022-10-22T03:09:28.458Z,13.87
2022-10-22T03:10:28.440Z,13.85
2022-10-22T03:11:28.449Z,13.85
2022-10-22T03:12:28.439Z,13.87
2022-10-22T03:13:28.417Z,13.87
2022-10-22T03:14:28.430Z,13.85
2022-10-22T03:16:28.357Z,13.85
2022-10-22T03:17:28.364Z,13.88
2022-10-22T03:18:28.338Z,13.88
2022-10-22T03:19:28.316Z,13.89
2022-10-22T03:20:28.317Z,13.92
2022-10-22T03:21:28.294Z,13.96
2022-10-22T03:22:28.296Z,13.97
2022-10-22T03:23:28.265Z,13.99
2022-10-22T03:24:28.266Z,13.96
2022-10-22T03:25:28.236Z,13.96
2022-10-22T03:26:28.235Z,13.95
2022-10-22T03:27:28.238Z,13.96
2022-10-22T03:28:28.224Z,13.96
2022-10-22T03:29:28.185Z,13.96
2022-10-22T03:30:28.185Z,13.96
2022-10-22T03:31:28.164Z,13.92
2022-10-22T03:32:28.164Z,13.96
2022-10-22T03:33:28.135Z,13.97
2022-10-22T03:34:28.134Z,13.97
2022-10-22T03:35:28.114Z,13.97
2022-10-22T03:36:28.106Z,13.96
2022-10-22T03:37:28.093Z,13.92
2022-10-22T03:38:28.084Z,13.95
2022-10-22T03:39:28.073Z,13.92
2022-10-22T03:40:28.054Z,13.92
2022-10-22T03:41:28.052Z,13.91
2022-10-22T03:42:28.034Z,13.89
2022-10-22T03:43:28.032Z,13.88
2022-10-22T03:44:28.013Z,13.88
2022-10-22T03:45:28.051Z,13.88
2022-10-22T03:46:27.993Z,13.88
2022-10-22T03:47:27.972Z,13.89
2022-10-22T03:48:27.969Z,13.91
2022-10-22T03:49:27.932Z,13.89
2022-10-22T03:50:27.923Z,13.91
2022-10-22T03:51:27.911Z,13.91
2022-10-22T03:52:27.912Z,13.91
2022-10-22T03:53:28.352Z,13.91
2022-10-22T03:54:27.961Z,13.92
2022-10-22T03:55:27.860Z,13.91
2022-10-22T03:56:27.866Z,13.91
2022-10-22T03:57:27.842Z,13.91
2022-10-22T03:58:27.828Z,13.91
2022-10-22T03:59:27.831Z,13.95
2022-10-22T04:00:27.811Z,13.96
2022-10-22T04:01:27.842Z,13.99
2022-10-22T04:02:27.790Z,14.02
2022-10-22T04:03:27.761Z,14.00
2022-10-22T04:04:27.769Z,13.99
2022-10-22T04:05:27.752Z,13.97
2022-10-22T04:06:27.731Z,13.96
2022-10-22T04:07:27.721Z,13.97
2022-10-22T04:08:27.708Z,13.97
2022-10-22T04:09:27.701Z,13.96
2022-10-22T04:10:27.711Z,13.97
2022-10-22T04:11:27.667Z,13.99
2022-10-22T04:12:27.659Z,13.99
2022-10-22T04:13:27.638Z,13.97
2022-10-22T04:14:27.658Z,13.96
2022-10-22T04:15:27.609Z,13.99
2022-10-22T04:16:30.008Z,13.99
2022-10-22T04:17:27.613Z,13.96
2022-10-22T04:18:27.578Z,13.96
2022-10-22T04:19:27.635Z,13.92
2022-10-22T04:20:27.559Z,13.91
2022-10-22T04:21:27.538Z,13.88
2022-10-22T04:22:27.547Z,13.88
2022-10-22T04:23:27.548Z,13.87
2022-10-22T04:24:27.514Z,13.84
2022-10-22T04:25:27.489Z,13.82
2022-10-22T04:26:27.479Z,13.81
2022-10-22T04:27:27.458Z,13.79
2022-10-22T04:28:27.487Z,13.79
2022-10-22T04:29:27.458Z,13.78
2022-10-22T04:30:27.438Z,13.78
2022-10-22T04:31:27.409Z,13.78
2022-10-22T04:32:27.401Z,13.75
2022-10-22T04:33:27.385Z,13.77
2022-10-22T04:34:27.398Z,13.75
2022-10-22T04:35:27.357Z,13.73
2022-10-22T04:36:27.349Z,13.73
2022-10-22T04:37:27.326Z,13.73
2022-10-22T04:38:27.323Z,13.73
2022-10-22T04:39:27.305Z,13.73
2022-10-22T04:40:27.315Z,13.71
2022-10-22T04:41:27.281Z,13.71
2022-10-22T04:42:27.277Z,13.70
2022-10-22T04:43:27.261Z,13.69
2022-10-22T04:44:27.260Z,13.69
2022-10-22T04:45:27.226Z,13.70
2022-10-22T04:46:27.245Z,13.70
2022-10-22T04:47:27.195Z,13.69
2022-10-22T04:48:27.214Z,13.71
2022-10-22T04:49:27.176Z,13.78
2022-10-22T04:50:27.170Z,13.79
2022-10-22T04:51:27.152Z,13.79
2022-10-22T04:52:27.155Z,13.79
2022-10-22T04:53:27.121Z,13.79
2022-10-22T04:54:29.139Z,13.78
2022-10-22T04:55:28.131Z,13.79
2022-10-22T04:56:27.113Z,13.81
2022-10-22T04:57:27.071Z,13.82
2022-10-22T04:58:27.087Z,13.81
2022-10-22T04:59:27.052Z,13.81
2022-10-22T05:00:27.041Z,13.79
2022-10-22T05:01:27.085Z,13.81
2022-10-22T05:02:27.012Z,13.81
2022-10-22T05:03:26.992Z,13.82
2022-10-22T05:04:27.013Z,13.81
2022-10-22T05:05:26.971Z,13.81
2022-10-22T05:06:26.952Z,13.79
2022-10-22T05:07:26.940Z,13.79
2022-10-22T05:08:26.941Z,13.79
2022-10-22T05:09:26.911Z,13.82
2022-10-22T05:10:26.924Z,13.87
2022-10-22T05:11:26.883Z,13.85
2022-10-22T05:12:26.882Z,13.85
2022-10-22T05:13:26.872Z,13.85
2022-10-22T05:14:26.854Z,13.87
2022-10-22T05:15:26.871Z,13.87
2022-10-22T05:16:26.830Z,13.89
2022-10-22T05:17:26.822Z,13.91
2022-10-22T05:18:26.812Z,13.89
2022-10-22T05:19:26.800Z,13.88
2022-10-22T05:20:26.780Z,13.89
2022-10-22T05:21:26.771Z,13.87
2022-10-22T05:22:26.750Z,13.88
2022-10-22T05:23:26.730Z,13.87
2022-10-22T05:24:26.729Z,13.87
2022-10-22T05:25:26.711Z,13.88
2022-10-22T05:26:26.711Z,13.89
2022-10-22T05:27:26.701Z,13.89
2022-10-22T05:28:26.675Z,13.88
2022-10-22T05:29:26.659Z,13.87
2022-10-22T05:30:26.660Z,13.88
2022-10-22T05:31:26.648Z,13.88
2022-10-22T05:32:26.620Z,13.88
2022-10-22T05:33:26.631Z,13.89
2022-10-22T05:34:26.601Z,13.88
2022-10-22T05:35:26.578Z,13.91
2022-10-22T05:36:26.558Z,13.92
2022-10-22T05:37:26.550Z,13.91
2022-10-22T05:38:26.557Z,13.91
2022-10-22T05:39:26.542Z,13.92
2022-10-22T05:40:31.243Z,13.91
2022-10-22T05:41:27.510Z,13.91
2022-10-22T05:42:26.497Z,13.89
2022-10-22T05:43:26.487Z,13.89
2022-10-22T05:44:26.484Z,13.95
2022-10-22T05:45:26.487Z,13.91
2022-10-22T05:46:26.437Z,13.92
2022-10-22T05:47:26.428Z,13.92
2022-10-22T05:48:26.461Z,13.92
2022-10-22T05:49:26.398Z,13.92
2022-10-22T05:50:26.390Z,13.92
2022-10-22T05:51:26.406Z,13.96
2022-10-22T05:52:26.357Z,13.96
2022-10-22T05:53:26.345Z,13.96
2022-10-22T05:54:26.335Z,13.95
2022-10-22T05:55:26.319Z,13.95
2022-10-22T05:56:26.305Z,13.95
2022-10-22T05:57:26.317Z,13.95
2022-10-22T05:58:26.287Z,13.92
2022-10-22T05:59:26.265Z,13.92
2022-10-22T06:00:26.257Z,13.91
2022-10-22T06:01:26.236Z,13.91
2022-10-22T06:02:26.278Z,13.88
2022-10-22T06:03:26.234Z,13.87
2022-10-22T06:04:26.203Z,13.87
2022-10-22T06:05:26.197Z,13.85
2022-10-22T06:06:26.184Z,13.85
2022-10-22T06:07:26.164Z,13.84
2022-10-22T06:08:26.145Z,13.82
2022-10-22T06:09:26.228Z,13.84
2022-10-22T06:10:26.134Z,13.82
2022-10-22T06:11:27.278Z,13.79
2022-10-22T06:12:26.104Z,13.78
2022-10-22T06:13:26.092Z,13.78
2022-10-22T06:14:26.086Z,13.77
2022-10-22T06:15:26.073Z,13.77
2022-10-22T06:16:26.053Z,13.75
2022-10-22T06:17:26.033Z,13.73
2022-10-22T06:18:26.029Z,13.73
2022-10-22T06:19:26.012Z,13.71
2022-10-22T06:20:26.012Z,13.71
2022-10-22T06:21:25.990Z,13.69
2022-10-22T06:22:25.971Z,13.69
2022-10-22T06:23:25.982Z,13.67
2022-10-22T06:24:25.951Z,13.69
2022-10-22T06:25:25.972Z,13.66
2022-10-22T06:26:25.922Z,13.66
2022-10-22T06:27:25.921Z,13.64
2022-10-22T06:28:25.925Z,13.62
2022-10-22T06:29:25.891Z,13.60
2022-10-22T06:30:25.893Z,13.60
2022-10-22T06:31:25.860Z,13.60
2022-10-22T06:32:25.852Z,13.59
2022-10-22T06:33:25.851Z,13.59
2022-10-22T06:34:25.832Z,13.54
2022-10-22T06:35:25.821Z,13.55
2022-10-22T06:36:25.822Z,13.57
2022-10-22T06:37:25.790Z,13.57
2022-10-22T06:38:25.770Z,13.59
2022-10-22T06:39:25.760Z,13.59
2022-10-22T06:40:25.741Z,13.59
2022-10-22T06:41:28.695Z,13.60
2022-10-22T06:42:25.729Z,13.59
2022-10-22T06:43:25.719Z,13.60
2022-10-22T06:44:25.709Z,13.63
2022-10-22T06:45:25.709Z,13.66
2022-10-22T06:46:25.671Z,13.67
2022-10-22T06:47:25.669Z,13.71
2022-10-22T06:48:25.638Z,13.70
2022-10-22T06:49:25.638Z,13.73
2022-10-22T06:50:25.662Z,13.75
2022-10-22T06:51:25.609Z,13.79
2022-10-22T06:52:25.609Z,13.81
2022-10-22T06:53:25.598Z,13.88
2022-10-22T06:54:25.577Z,13.91
2022-10-22T06:55:25.558Z,13.96
2022-10-22T06:56:25.550Z,14.02
2022-10-22T06:57:25.537Z,14.06
2022-10-22T06:58:25.524Z,14.10
2022-10-22T06:59:25.506Z,14.15
2022-10-22T07:00:25.618Z,14.21
2022-10-22T07:01:25.560Z,14.25
2022-10-22T07:02:25.485Z,14.29
2022-10-22T07:03:25.449Z,14.36
2022-10-22T07:04:25.447Z,14.40
2022-10-22T07:05:25.427Z,14.42
2022-10-22T07:06:25.430Z,14.45
2022-10-22T07:07:25.408Z,14.47
2022-10-22T07:08:25.417Z,14.47
2022-10-22T07:09:25.379Z,14.52
2022-10-22T07:10:28.449Z,14.55
2022-10-22T07:11:25.356Z,14.60
2022-10-22T07:12:25.346Z,14.61
2022-10-22T07:13:25.325Z,14.64
2022-10-22T07:14:25.326Z,14.64
2022-10-22T07:15:25.297Z,14.65
2022-10-22T07:16:29.547Z,14.68
2022-10-22T07:17:26.330Z,14.68
2022-10-22T07:18:25.265Z,14.68
2022-10-22T07:19:25.254Z,14.64
2022-10-22T07:20:25.247Z,14.64
2022-10-22T07:21:25.230Z,14.61
2022-10-22T07:22:25.212Z,14.61
2022-10-22T07:23:25.198Z,14.58
2022-10-22T07:24:25.205Z,14.58
2022-10-22T07:25:25.174Z,14.60
2022-10-22T07:26:25.174Z,14.58
2022-10-22T07:27:25.146Z,14.61
2022-10-22T07:28:25.135Z,14.60
2022-10-22T07:29:25.149Z,14.62
2022-10-22T07:30:25.118Z,14.62
2022-10-22T07:31:25.102Z,14.65
2022-10-22T07:32:25.083Z,14.65
2022-10-22T07:33:25.081Z,14.65
2022-10-22T07:34:25.084Z,14.68
2022-10-22T07:35:25.043Z,14.68
2022-10-22T07:36:25.032Z,14.69
2022-10-22T07:37:26.038Z,14.70
2022-10-22T07:38:25.022Z,14.73
2022-10-22T07:39:25.002Z,14.73
2022-10-22T07:40:25.012Z,14.73
2022-10-22T07:41:24.974Z,14.77
2022-10-22T07:42:25.002Z,14.80
2022-10-22T07:43:24.963Z,14.83
2022-10-22T07:44:24.931Z,14.84
2022-10-22T07:45:24.921Z,14.89
2022-10-22T07:46:24.942Z,14.95
2022-10-22T07:47:24.924Z,14.98
2022-10-22T07:48:24.901Z,14.99
2022-10-22T07:49:24.879Z,15.02
2022-10-22T07:50:24.860Z,15.06
2022-10-22T07:51:24.841Z,15.10
2022-10-22T07:52:24.850Z,15.14
2022-10-22T07:53:24.820Z,15.19
2022-10-22T07:54:24.821Z,15.25
2022-10-22T07:55:24.789Z,15.28
2022-10-22T07:56:24.809Z,15.32
2022-10-22T07:57:24.784Z,15.36
2022-10-22T07:58:24.768Z,15.39
2022-10-22T07:59:24.749Z,15.44
2022-10-22T08:00:25.496Z,15.50
2022-10-22T08:01:24.754Z,15.56
2022-10-22T08:02:24.720Z,15.57
2022-10-22T08:03:24.714Z,15.59
2022-10-22T08:04:24.698Z,15.64
2022-10-22T08:05:24.673Z,15.67
2022-10-22T08:06:24.678Z,15.68
2022-10-22T08:08:27.138Z,15.71
2022-10-22T08:09:25.629Z,15.72
2022-10-22T08:10:24.638Z,15.72
2022-10-22T08:11:24.598Z,15.72
2022-10-22T08:12:24.607Z,15.72
2022-10-22T08:13:24.576Z,15.74
2022-10-22T08:14:24.577Z,15.72
2022-10-22T08:15:24.548Z,15.72
2022-10-22T08:16:24.546Z,15.72
2022-10-22T08:17:24.516Z,15.74
2022-10-22T08:18:24.546Z,15.74
2022-10-22T08:19:24.496Z,15.76
2022-10-22T08:20:24.485Z,15.82
2022-10-22T08:21:24.466Z,15.83
2022-10-22T08:22:24.466Z,15.87
2022-10-22T08:23:27.504Z,15.89
2022-10-22T08:24:24.458Z,15.90
2022-10-22T08:25:24.416Z,15.93
2022-10-22T08:26:24.415Z,15.94
2022-10-22T08:27:24.395Z,16.00
2022-10-22T08:28:24.387Z,16.02
2022-10-22T08:29:24.375Z,16.07
2022-10-22T08:30:24.367Z,16.09
2022-10-22T08:31:24.344Z,16.11
2022-10-22T08:32:24.393Z,16.17
2022-10-22T08:33:24.333Z,16.20
2022-10-22T08:34:24.333Z,16.25
2022-10-22T08:35:24.304Z,16.27
2022-10-22T08:36:24.295Z,16.28
2022-10-22T08:37:24.264Z,16.30
2022-10-22T08:38:24.254Z,16.28
2022-10-22T08:39:24.253Z,16.28
2022-10-22T08:40:24.242Z,16.28
2022-10-22T08:41:24.214Z,16.27
2022-10-22T08:42:24.204Z,16.25
2022-10-22T08:43:24.194Z,16.27
2022-10-22T08:44:24.182Z,16.27
2022-10-22T08:45:24.185Z,16.24
2022-10-22T08:46:24.153Z,16.24
2022-10-22T08:47:24.134Z,16.23
2022-10-22T08:48:24.136Z,16.21
2022-10-22T08:49:24.105Z,16.20
2022-10-22T08:50:24.102Z,16.17
2022-10-22T08:51:24.111Z,16.15
2022-10-22T08:52:24.080Z,16.17
2022-10-22T08:53:24.052Z,16.17
2022-10-22T08:54:24.063Z,16.14
2022-10-22T08:55:24.037Z,16.11
2022-10-22T08:56:24.032Z,16.09
2022-10-22T08:57:24.098Z,16.11
2022-10-22T08:58:24.016Z,16.11
2022-10-22T08:59:23.992Z,16.09
2022-10-22T09:00:23.994Z,16.11
2022-10-22T09:01:23.951Z,16.09
2022-10-22T09:02:23.960Z,16.08
2022-10-22T09:03:23.931Z,16.05
2022-10-22T09:04:23.922Z,16.05
2022-10-22T09:05:23.900Z,16.04
2022-10-22T09:06:23.892Z,16.05
2022-10-22T09:07:23.878Z,16.05
2022-10-22T09:08:23.882Z,16.04
2022-10-22T09:09:23.862Z,16.02
2022-10-22T09:10:23.839Z,16.02
2022-10-22T09:11:23.842Z,16.02
2022-10-22T09:12:23.809Z,16.07
2022-10-22T09:13:23.810Z,16.08
2022-10-22T09:14:23.799Z,16.09
2022-10-22T09:15:23.781Z,16.11
2022-10-22T09:16:23.759Z,16.12
2022-10-22T09:17:23.751Z,16.17
2022-10-22T09:18:23.738Z,16.20
2022-10-22T09:19:23.738Z,16.23
2022-10-22T09:20:23.698Z,16.24
2022-10-22T09:21:23.708Z,16.27
2022-10-22T09:22:23.729Z,16.30
2022-10-22T09:23:23.688Z,16.33
2022-10-22T09:24:23.679Z,16.35
2022-10-22T09:25:23.638Z,16.35
2022-10-22T09:26:23.629Z,16.35
2022-10-22T09:27:23.633Z,16.35
2022-10-22T09:28:23.601Z,16.35
2022-10-22T09:29:23.597Z,16.35
2022-10-22T09:30:23.567Z,16.35
2022-10-22T09:31:23.568Z,16.35
2022-10-22T09:32:23.546Z,16.35
2022-10-22T09:33:24.729Z,16.38
2022-10-22T09:34:23.526Z,16.42
2022-10-22T09:35:23.516Z,16.43
2022-10-22T09:36:23.494Z,16.45
2022-10-22T09:37:23.513Z,16.46
2022-10-22T09:38:23.465Z,16.48
2022-10-22T09:39:23.478Z,16.52
2022-10-22T09:40:23.446Z,16.56
2022-10-22T09:41:23.436Z,16.61
2022-10-22T09:42:23.415Z,16.68
2022-10-22T09:43:23.405Z,16.78
2022-10-22T09:44:23.395Z,16.82
2022-10-22T09:45:23.376Z,16.83
2022-10-22T09:46:23.375Z,16.89
2022-10-22T09:47:25.999Z,16.93
2022-10-22T09:48:24.336Z,16.93
2022-10-22T09:49:23.378Z,16.96
2022-10-22T09:50:23.304Z,16.91
2022-10-22T09:51:23.305Z,16.88
2022-10-22T09:52:23.285Z,16.89
2022-10-22T09:53:23.285Z,16.85
2022-10-22T09:54:23.294Z,16.85
2022-10-22T09:55:23.363Z,16.79
2022-10-22T09:56:23.445Z,16.76
2022-10-22T09:57:23.214Z,16.75
2022-10-22T09:58:23.205Z,16.68
2022-10-22T09:59:23.203Z,16.68
2022-10-22T10:00:23.175Z,16.68
2022-10-22T10:01:23.164Z,16.68
2022-10-22T10:02:37.590Z,16.70
2022-10-22T10:03:24.212Z,16.70
2022-10-22T10:04:23.133Z,16.70
2022-10-22T10:05:23.104Z,16.70
2022-10-22T10:06:23.184Z,16.71
2022-10-22T10:07:23.144Z,16.75
2022-10-22T10:08:23.152Z,16.71
2022-10-22T10:09:23.205Z,16.68
2022-10-22T10:10:23.122Z,16.68
2022-10-22T10:11:28.068Z,16.68
2022-10-22T10:12:24.023Z,16.66
2022-10-22T10:13:23.007Z,16.66
2022-10-22T10:14:22.983Z,16.67
2022-10-22T10:15:23.002Z,16.68
2022-10-22T10:16:22.960Z,16.71
2022-10-22T10:17:22.950Z,16.73
2022-10-22T10:18:22.931Z,16.75
2022-10-22T10:19:22.930Z,16.75
2022-10-22T10:20:22.901Z,16.76
2022-10-22T10:21:22.923Z,16.73
2022-10-22T10:22:22.871Z,16.70
2022-10-22T10:23:24.583Z,16.67
2022-10-22T10:24:22.850Z,16.68
2022-10-22T10:25:22.830Z,16.70
2022-10-22T10:26:22.822Z,16.68
2022-10-22T10:27:22.839Z,16.70
2022-10-22T10:28:22.789Z,16.68
2022-10-22T10:29:22.781Z,16.68
2022-10-22T10:30:22.773Z,16.70
2022-10-22T10:31:22.759Z,16.68
2022-10-22T10:32:24.395Z,16.67
2022-10-22T10:33:22.749Z,16.68
2022-10-22T10:34:22.709Z,16.68
2022-10-22T10:35:22.729Z,16.70
2022-10-22T10:36:22.688Z,16.66
2022-10-22T10:37:22.687Z,16.63
2022-10-22T10:38:24.765Z,16.64
2022-10-22T10:39:22.668Z,16.64
2022-10-22T10:40:22.631Z,16.63
2022-10-22T10:41:22.621Z,16.61
2022-10-22T10:42:22.598Z,16.61
2022-10-22T10:43:22.588Z,16.61
2022-10-22T10:44:22.578Z,16.60
2022-10-22T10:45:22.603Z,16.60
2022-10-22T10:46:22.586Z,16.60
2022-10-22T10:47:22.571Z,16.60
2022-10-22T10:48:22.544Z,16.60
2022-10-22T10:49:22.508Z,16.58
2022-10-22T10:50:22.508Z,16.57
2022-10-22T10:51:22.498Z,16.56
2022-10-22T10:52:22.467Z,16.56
2022-10-22T10:53:22.459Z,16.58
2022-10-22T10:54:22.458Z,16.58
2022-10-22T10:55:22.445Z,16.58
2022-10-22T10:56:22.416Z,16.58
2022-10-22T10:57:22.426Z,16.61
2022-10-22T10:58:22.406Z,16.67
2022-10-22T10:59:22.395Z,16.71
2022-10-22T11:00:22.410Z,16.78
2022-10-22T11:01:22.388Z,16.82
2022-10-22T11:02:22.356Z,16.83
2022-10-22T11:03:22.336Z,16.82
2022-10-22T11:04:22.325Z,16.82
2022-10-22T11:05:22.315Z,16.82
2022-10-22T11:06:25.395Z,16.81
2022-10-22T11:07:34.372Z,16.83
2022-10-22T11:08:23.265Z,16.86
2022-10-22T11:09:22.246Z,16.88
2022-10-22T11:10:22.247Z,16.91
2022-10-22T11:11:22.229Z,16.94
2022-10-22T11:12:22.205Z,16.93
2022-10-22T11:13:22.189Z,16.93
2022-10-22T11:14:24.257Z,16.91
2022-10-22T11:15:22.176Z,16.93
2022-10-22T11:16:22.165Z,16.93
2022-10-22T11:17:22.145Z,16.97
2022-10-22T11:18:22.134Z,17.00
2022-10-22T11:19:46.269Z,17.04
2022-10-22T11:20:23.122Z,17.07
2022-10-22T11:21:22.085Z,17.11
2022-10-22T11:22:26.478Z,17.12
2022-10-22T11:23:22.563Z,17.14
2022-10-22T11:24:22.075Z,17.14
2022-10-22T11:25:22.143Z,17.12
2022-10-22T11:26:22.022Z,17.14
2022-10-22T11:27:22.025Z,17.11
2022-10-22T11:28:22.003Z,17.08
2022-10-22T11:29:21.973Z,17.04
2022-10-22T11:30:21.983Z,17.04
2022-10-22T11:31:21.955Z,17.04
2022-10-22T11:32:21.943Z,17.06
2022-10-22T11:33:21.927Z,17.04
2022-10-22T11:34:33.276Z,17.06
2022-10-22T11:35:25.831Z,17.07
2022-10-22T11:36:22.012Z,17.07
2022-10-22T11:37:21.861Z,17.08
2022-10-22T11:38:21.863Z,17.08
2022-10-22T11:39:21.842Z,17.11
2022-10-22T11:40:21.861Z,17.08
2022-10-22T11:41:21.812Z,17.07
2022-10-22T11:42:21.812Z,17.06
2022-10-22T11:43:21.795Z,17.06
2022-10-22T11:44:21.779Z,17.11
2022-10-22T11:45:21.785Z,17.15
2022-10-22T11:46:21.747Z,17.14
2022-10-22T11:47:21.733Z,17.11
2022-10-22T11:48:21.720Z,17.08
2022-10-22T11:49:21.710Z,17.08
2022-10-22T11:50:21.777Z,17.12
2022-10-22T11:51:21.680Z,17.14
2022-10-22T11:52:21.671Z,17.15
2022-10-22T11:53:21.661Z,17.18
2022-10-22T11:54:21.651Z,17.19
2022-10-22T11:55:21.641Z,17.21
2022-10-22T11:56:21.628Z,17.22
2022-10-22T11:57:21.598Z,17.25
2022-10-22T11:58:21.601Z,17.23
2022-10-22T11:59:21.580Z,17.23
2022-10-22T12:00:21.571Z,17.23
2022-10-22T12:01:21.573Z,17.28
2022-10-22T12:02:21.539Z,17.30
2022-10-22T12:03:21.519Z,17.31
2022-10-22T12:04:21.577Z,17.34
2022-10-22T12:05:21.518Z,17.30
2022-10-22T12:06:21.487Z,17.26
2022-10-22T12:07:21.458Z,17.23
2022-10-22T12:08:21.458Z,17.21
2022-10-22T12:09:21.439Z,17.22
2022-10-22T12:10:21.459Z,17.21
2022-10-22T12:11:21.420Z,17.21
2022-10-22T12:12:21.408Z,17.22
2022-10-22T12:13:21.387Z,17.21
2022-10-22T12:14:21.387Z,17.22
2022-10-22T12:15:21.378Z,17.22
2022-10-22T12:16:32.157Z,17.22
2022-10-22T12:17:22.357Z,17.22
2022-10-22T12:18:21.330Z,17.21
2022-10-22T12:19:21.308Z,17.22
2022-10-22T12:20:21.315Z,17.22
2022-10-22T12:21:21.285Z,17.22
2022-10-22T12:22:21.268Z,17.21
2022-10-22T12:23:21.267Z,17.21
2022-10-22T12:24:21.246Z,17.22
2022-10-22T12:25:21.248Z,17.23
2022-10-22T12:26:21.250Z,17.23
2022-10-22T12:27:22.700Z,17.21
2022-10-22T12:28:21.197Z,17.21
2022-10-22T12:29:21.175Z,17.18
2022-10-22T12:30:21.175Z,17.18
2022-10-22T12:31:21.151Z,17.18
2022-10-22T12:32:21.145Z,17.19
2022-10-22T12:33:21.138Z,17.18
2022-10-22T12:34:21.113Z,17.14
2022-10-22T12:35:21.111Z,17.11
2022-10-22T12:36:21.075Z,17.11
2022-10-22T12:37:21.075Z,17.08
2022-10-22T12:38:21.047Z,17.12
2022-10-22T12:39:21.044Z,17.14
2022-10-22T12:40:21.036Z,17.15
2022-10-22T12:41:21.015Z,17.18
2022-10-22T12:42:21.005Z,17.19
2022-10-22T12:43:20.993Z,17.21
2022-10-22T12:44:20.984Z,17.22
2022-10-22T12:45:20.986Z,17.25
2022-10-22T12:46:20.935Z,17.28
2022-10-22T12:47:20.924Z,17.30
2022-10-22T12:48:20.934Z,17.30
2022-10-22T12:49:20.906Z,17.28
2022-10-22T12:50:20.914Z,17.31
2022-10-22T12:51:20.931Z,17.33
2022-10-22T12:52:20.863Z,17.33
2022-10-22T12:53:20.852Z,17.36
2022-10-22T12:54:20.842Z,17.37